Flight Track Log - Related Links

Times and Time Zones

All times are in EDT time to prevent confusion due to time zone crossing. See the SKW6338 flight status page for this flight to view local times or setup timezone preferences in your user account.

Time Position Orientation Groundspeed Altitude Reporting Facility
EDT Latitude Longitude Course Direction KTS MPH feet Rate Location/Type
Sun 07:29:13 PM 33.9000 -118.4667 138° Southeast 194 223 2,400  Level Southern California TRACON
Sun 07:30:13 PM 33.8586 -118.4858 201° Southwest 199 229 4,000 1,475 Climbing Los Angeles Center
Sun 07:31:00 PM 33.8783 -118.3448 141° Southeast  Level FlightAware Approximate
Sun 07:31:15 PM 33.8075 -118.4736 169° South 204 235 5,400  Level Los Angeles Center
Sun 07:32:00 PM 33.8152 -118.2800 140° Southeast  Level Estimated
Sun 07:32:17 PM 33.7556 -118.4464 156° South 210 242 6,500  Level Los Angeles Center
Sun 07:33:00 PM 33.7520 -118.2153 140° Southeast  Level Estimated
Sun 07:33:19 PM 33.7008 -118.3906 140° Southeast 217 250 8,000  Level Los Angeles Center
Sun 07:34:00 PM 33.6888 -118.1507 138° Southeast  Level Estimated
Sun 07:34:21 PM 33.6544 -118.3450 141° Southeast 220 253 8,900  Level Los Angeles Center
Sun 07:35:23 PM 33.6164 -118.2842 127° Southeast 230 265 9,000 48 Climbing Los Angeles Center
Sun 07:36:25 PM 33.5728 -118.2047 123° Southeast 235 270 9,000  Level Los Angeles Center
Sun 07:37:27 PM 33.5347 -118.1378 124° Southeast 240 276 9,000  Level Los Angeles Center
Sun 07:38:29 PM 33.4986 -118.0719 123° Southeast 240 276 9,000  Level Los Angeles Center
Sun 07:39:31 PM 33.4614 -118.0047 124° Southeast 240 276 9,000  Level Los Angeles Center
Sun 07:40:34 PM 33.4247 -117.9372 123° Southeast 242 278 9,000  Level Los Angeles Center
Sun 07:41:36 PM 33.3872 -117.8700 124° Southeast 242 278 9,000  Level Los Angeles Center
Sun 07:42:38 PM 33.3422 -117.7917 124° Southeast 240 276 9,000  Level Los Angeles Center
Sun 07:43:40 PM 33.3039 -117.7244 124° Southeast 243 280 9,000  Level Los Angeles Center
Sun 07:44:42 PM 33.2669 -117.6572 123° Southeast 243 280 9,000  Level Los Angeles Center
Sun 07:45:44 PM 33.2275 -117.5942 127° Southeast 239 275 9,000 -65 Level Los Angeles Center
Sun 07:46:15 PM 33.1833 -117.5667 152° Southeast 241 277 8,900 -66 Descending Southern California TRACON
Sun 07:47:15 PM 33.1333 -117.5167 140° Southeast 242 278 8,900 65 Level Southern California TRACON
Sun 07:47:48 PM 33.1156 -117.5050 151° Southeast 240 276 9,000 -189 Climbing Los Angeles Center
Sun 07:48:50 PM 33.0497 -117.4492 145° Southeast 241 277 8,600 -484 Descending Los Angeles Center
Sun 07:49:52 PM 32.9900 -117.4000 145° Southeast 254 292 8,000 -576 Descending Los Angeles Center
Sun 07:50:55 PM 32.9339 -117.3425 139° Southeast 264 304 7,400 -576 Descending Los Angeles Center
Sun 07:51:57 PM 32.8869 -117.2753 130° Southeast 264 304 6,800 -581 Descending Los Angeles Center
Sun 07:52:59 PM 32.8367 -117.2092 132° Southeast 267 307 6,200 -677 Descending Los Angeles Center
Sun 07:54:01 PM 32.7822 -117.1333 130° Southeast 264 304 5,400 -774 Descending Los Angeles Center
Sun 07:55:03 PM 32.7478 -117.0697 123° Southeast 239 275 4,600 -919 Descending Los Angeles Center
Sun 07:56:05 PM 32.7053 -117.0325 144° Southeast 242 278 3,500 -1,065 Descending Los Angeles Center

Login

Don't have an account? Register now (free) for customized features, flight alerts, and more!